NPH weather

Nephi Municipal Airport
Nephi, Utah, United States

Public forecast

Using degrees Fahrenheit for public forecast. Weather courtesy of forecast.io.

METAR (pilot weather report)

Closest report is Provo Municipal Airport, 29.6 nm (54.9 km) NNE. Retrieved 2019/07/17 16:56 UTC (45 minutes ago):

KPVU 171656Z 00000KT 10SM SCT200 27/10 A3006 RMK AO2 SLP114 T02720100

TAF (pilot weather forecast)

Closest forecast is Provo Municipal Airport, 29.6 nm (54.9 km) NNE. Retrieved 2019/07/17 12:22 UTC (5 hours ago):

TAF KPVU 171120Z 1712/1812 VRB04KT P6SM FEW120 FM171800 26008KT P6SM SCT120 FM180400 15006KT P6SM FEW120